Time;durP1;ratioP1;P1;durP2;ratioP2;P2;SDS_P1;SDS_P2;PMS_P1;PMS_P2;Temp;Humidity;BMP_temperature;BMP_pressure;BME280_temperature;BME280_humidity;BME280_pressure;Samples;Min_cycle;Max_cycle;Signal;HPM_P1;HPM_P2
2021/05/07 00:00:30;;;;;;;4.88;1.98;;;17.40;99.20;;;;;;6338152;22;20010;-83
2021/05/07 00:02:56;;;;;;;5.68;2.50;;;17.40;99.20;;;;;;6338242;22;20429;-81
2021/05/07 00:05:22;;;;;;;3.90;2.30;;;17.40;99.10;;;;;;6338316;22;20033;-78
2021/05/07 00:07:48;;;;;;;4.95;2.20;;;17.40;99.10;;;;;;6338238;22;19999;-77
2021/05/07 00:10:14;;;;;;;5.00;1.90;;;17.40;99.00;;;;;;6338434;22;20002;-79
2021/05/07 00:12:44;;;;;;;4.07;2.15;;;17.40;99.00;;;;;;6338181;22;20006;-82
2021/05/07 00:15:10;;;;;;;4.13;1.85;;;17.40;98.90;;;;;;6338260;22;20085;-83
2021/05/07 00:17:36;;;;;;;3.25;1.88;;;17.40;98.90;;;;;;6310533;22;20420;-83
2021/05/07 00:20:04;;;;;;;3.63;1.75;;;17.30;98.90;;;;;;6338188;22;20077;-83
2021/05/07 00:22:30;;;;;;;3.80;1.70;;;17.30;99.00;;;;;;6338848;22;20026;-83
2021/05/07 00:24:56;;;;;;;2.25;1.77;;;17.30;99.10;;;;;;6352176;22;20010;-78
2021/05/07 00:27:22;;;;;;;3.35;1.90;;;17.30;99.20;;;;;;6341148;22;20128;-82
2021/05/07 00:29:47;;;;;;;5.80;1.80;;;17.40;99.20;;;;;;6338035;22;20006;-80
2021/05/07 00:32:14;;;;;;;3.87;2.07;;;17.40;99.20;;;;;;6310463;22;20009;-83
2021/05/07 00:34:40;;;;;;;5.72;2.33;;;17.40;99.30;;;;;;6310486;22;20315;-83
2021/05/07 00:37:06;;;;;;;3.92;1.50;;;17.40;99.30;;;;;;6310503;22;20060;-83
2021/05/07 00:39:32;;;;;;;3.08;1.50;;;17.40;99.30;;;;;;6338079;22;20002;-79
2021/05/07 00:42:05;;;;;;;8.43;2.28;;;17.40;99.40;;;;;;6338213;22;20002;-80
2021/05/07 00:44:34;;;;;;;4.00;2.17;;;17.40;99.30;;;;;;6310280;22;20018;-77
2021/05/07 00:47:06;;;;;;;4.28;2.55;;;17.40;99.30;;;;;;6338506;22;19998;-81
2021/05/07 00:49:36;;;;;;;7.10;2.38;;;17.40;99.10;;;;;;6310101;22;20025;-82
2021/05/07 00:52:05;;;;;;;5.13;1.77;;;17.40;99.20;;;;;;6310586;22;19999;-77
2021/05/07 00:54:35;;;;;;;3.38;1.92;;;17.30;99.40;;;;;;6310379;22;20081;-81
2021/05/07 00:57:03;;;;;;;7.70;2.38;;;17.30;99.50;;;;;;6338069;22;20006;-83
2021/05/07 00:59:29;;;;;;;5.57;2.60;;;17.20;99.50;;;;;;6338020;22;20007;-83
2021/05/07 01:01:55;;;;;;;10.82;2.30;;;17.10;99.40;;;;;;6310644;22;20003;-83
2021/05/07 01:04:22;;;;;;;4.68;2.38;;;17.10;99.80;;;;;;6310171;22;20018;-77
2021/05/07 01:06:48;;;;;;;4.20;2.15;;;17.00;99.80;;;;;;6310333;22;20007;-83
2021/05/07 01:09:14;;;;;;;3.65;2.22;;;16.90;99.90;;;;;;6337999;22;20003;-82
2021/05/07 01:11:41;;;;;;;3.22;1.90;;;16.90;99.90;;;;;;6310468;22;20029;-79
2021/05/07 01:14:07;;;;;;;5.85;2.65;;;16.90;99.90;;;;;;6337858;22;20007;-81
2021/05/07 01:16:33;;;;;;;4.60;2.53;;;16.90;99.90;;;;;;6310070;22;20059;-82
2021/05/07 01:19:01;;;;;;;2.78;1.92;;;16.70;99.90;;;;;;6310294;22;19998;-81
2021/05/07 01:21:27;;;;;;;6.07;2.50;;;16.70;99.90;;;;;;6337781;22;20007;-82
2021/05/07 01:23:54;;;;;;;3.35;1.95;;;16.70;99.90;;;;;;6338072;22;20014;-82
2021/05/07 01:26:21;;;;;;;6.15;2.70;;;16.60;99.90;;;;;;6310205;22;20003;-82
2021/05/07 01:28:48;;;;;;;6.05;2.45;;;16.70;99.90;;;;;;6338039;22;20003;-82
2021/05/07 01:31:14;;;;;;;5.60;2.28;;;16.70;99.90;;;;;;6337765;22;20026;-77
2021/05/07 01:33:41;;;;;;;5.85;2.38;;;16.70;99.90;;;;;;6310003;22;20014;-77
2021/05/07 01:36:07;;;;;;;4.50;1.70;;;16.70;99.90;;;;;;6340725;22;20010;-79
2021/05/07 01:38:36;;;;;;;5.38;2.05;;;16.70;99.90;;;;;;6320045;22;20027;-77
2021/05/07 01:41:05;;;;;;;4.05;1.75;;;16.80;99.90;;;;;;6310019;22;20009;-81
2021/05/07 01:43:36;;;;;;;2.30;1.77;;;16.80;99.90;;;;;;6337568;22;20010;-77
2021/05/07 01:46:04;;;;;;;3.72;2.00;;;16.80;99.90;;;;;;6310091;22;20464;-83
2021/05/07 01:48:31;;;;;;;4.55;2.42;;;16.70;99.90;;;;;;6309958;22;20007;-78
2021/05/07 01:50:57;;;;;;;6.30;2.40;;;16.70;99.90;;;;;;6338032;22;20007;-78
2021/05/07 01:53:24;;;;;;;7.75;3.03;;;16.70;99.90;;;;;;6309976;22;20003;-79
2021/05/07 01:55:50;;;;;;;5.22;2.50;;;16.70;99.90;;;;;;6337815;22;20400;-76
2021/05/07 01:58:25;;;;;;;3.60;2.20;;;16.60;99.90;;;;;;6309853;22;20007;-78
2021/05/07 02:00:54;;;;;;;7.35;2.10;;;16.60;99.90;;;;;;6338980;22;20011;-76
2021/05/07 02:03:20;;;;;;;4.47;2.22;;;16.60;99.90;;;;;;6311725;22;20014;-78
2021/05/07 02:05:53;;;;;;;5.60;2.58;;;16.60;99.90;;;;;;6311905;22;20007;-81
2021/05/07 02:08:20;;;;;;;4.13;2.35;;;16.70;99.90;;;;;;6311682;22;20076;-83
2021/05/07 02:10:46;;;;;;;6.50;2.60;;;16.70;99.90;;;;;;6311714;22;19999;-82
2021/05/07 02:13:13;;;;;;;5.82;3.42;;;16.70;99.90;;;;;;6311878;22;20002;-80
2021/05/07 02:15:45;;;;;;;4.22;2.42;;;16.60;99.90;;;;;;6339217;22;19995;-77
2021/05/07 02:18:13;;;;;;;3.97;2.15;;;16.70;99.90;;;;;;6311655;22;19999;-83
2021/05/07 02:20:43;;;;;;;4.18;2.40;;;16.60;99.90;;;;;;6339658;22;20060;-79
2021/05/07 02:23:10;;;;;;;7.70;2.30;;;16.60;99.90;;;;;;6311681;22;20022;-77
2021/05/07 02:25:36;;;;;;;4.97;2.70;;;16.60;99.90;;;;;;6311798;22;20009;-82
2021/05/07 02:28:03;;;;;;;3.33;2.20;;;16.60;99.90;;;;;;6311703;22;20315;-83
2021/05/07 02:30:32;;;;;;;3.55;2.10;;;16.60;99.90;;;;;;6339090;22;20003;-82
2021/05/07 02:33:04;;;;;;;7.57;2.00;;;16.60;99.90;;;;;;6311510;22;20421;-83
2021/05/07 02:35:30;;;;;;;8.38;2.35;;;16.60;99.90;;;;;;6339112;22;20009;-78
2021/05/07 02:37:56;;;;;;;4.65;1.90;;;16.70;99.90;;;;;;6339048;22;20060;-82
2021/05/07 02:40:22;;;;;;;5.63;2.63;;;16.70;99.90;;;;;;6339100;22;20445;-80
2021/05/07 02:42:51;;;;;;;5.90;2.83;;;16.70;99.90;;;;;;6311932;22;20014;-82
2021/05/07 02:45:18;;;;;;;5.28;2.67;;;16.70;99.90;;;;;;6311645;22;20379;-78
2021/05/07 02:47:44;;;;;;;5.65;2.65;;;16.60;99.90;;;;;;6312395;22;20018;-78
2021/05/07 02:50:12;;;;;;;6.22;3.00;;;16.60;99.90;;;;;;6327333;22;20007;-77
2021/05/07 02:52:40;;;;;;;4.28;2.45;;;16.60;99.90;;;;;;6339164;22;20056;-76
2021/05/07 02:55:09;;;;;;;4.88;2.33;;;16.60;99.90;;;;;;6339241;22;20016;-76
2021/05/07 02:57:35;;;;;;;9.50;3.10;;;16.60;99.90;;;;;;6311523;22;20030;-77
2021/05/07 03:00:01;;;;;;;5.57;2.40;;;16.50;99.90;;;;;;6311073;22;20021;-76
2021/05/07 03:02:27;;;;;;;8.50;3.75;;;16.50;99.90;;;;;;6338992;22;20021;-79
2021/05/07 03:04:53;;;;;;;5.47;2.35;;;16.40;99.90;;;;;;6338845;22;19999;-82
2021/05/07 03:07:19;;;;;;;6.10;2.93;;;16.40;99.90;;;;;;6338808;22;19995;-82
2021/05/07 03:09:45;;;;;;;5.05;2.63;;;16.30;99.90;;;;;;6339094;22;20236;-78
2021/05/07 03:12:11;;;;;;;12.17;3.53;;;16.30;99.90;;;;;;6338264;22;20022;-80
2021/05/07 03:14:37;;;;;;;8.80;3.33;;;16.30;99.90;;;;;;6338811;22;20597;-81
2021/05/07 03:17:03;;;;;;;6.55;3.00;;;16.30;99.90;;;;;;6338941;22;20002;-78
2021/05/07 03:19:29;;;;;;;4.07;2.63;;;16.20;99.90;;;;;;6311238;22;20006;-82
2021/05/07 03:21:55;;;;;;;9.48;3.28;;;16.30;99.90;;;;;;6311239;22;20006;-82
2021/05/07 03:24:21;;;;;;;5.63;3.45;;;16.40;99.90;;;;;;6338596;22;20015;-78
2021/05/07 03:26:47;;;;;;;11.05;3.45;;;16.40;99.90;;;;;;6338861;22;20387;-81
2021/05/07 03:29:13;;;;;;;4.80;2.67;;;16.40;99.90;;;;;;6338732;22;20002;-82
2021/05/07 03:31:39;;;;;;;4.93;3.00;;;16.40;99.90;;;;;;6311183;22;20003;-76
2021/05/07 03:34:05;;;;;;;7.63;3.33;;;16.50;99.90;;;;;;6338658;22;20043;-80
2021/05/07 03:36:31;;;;;;;8.77;3.25;;;16.60;99.90;;;;;;6338558;22;20026;-82
2021/05/07 03:38:57;;;;;;;5.43;2.88;;;16.60;99.90;;;;;;6310884;22;20056;-77
2021/05/07 03:41:23;;;;;;;6.10;2.63;;;16.60;99.90;;;;;;6311131;22;20003;-82
2021/05/07 03:43:49;;;;;;;8.75;3.30;;;16.60;99.90;;;;;;6338535;22;20041;-82
2021/05/07 03:46:15;;;;;;;6.40;3.13;;;16.60;99.90;;;;;;6338939;22;20369;-78
2021/05/07 03:48:41;;;;;;;4.88;2.80;;;16.60;99.90;;;;;;6338615;22;20006;-82
2021/05/07 03:51:07;;;;;;;6.47;2.80;;;16.50;99.90;;;;;;6338573;22;20124;-78
2021/05/07 03:53:33;;;;;;;8.45;3.50;;;16.40;99.90;;;;;;6338374;22;20007;-82
2021/05/07 03:55:59;;;;;;;4.88;2.83;;;16.50;99.90;;;;;;6338695;22;19999;-80
2021/05/07 03:58:25;;;;;;;5.63;2.88;;;16.40;99.90;;;;;;6338878;22;20091;-78
2021/05/07 04:00:51;;;;;;;5.07;2.83;;;16.40;99.90;;;;;;6339947;22;20469;-82
2021/05/07 04:03:17;;;;;;;8.40;3.90;;;16.50;99.90;;;;;;6345985;22;20090;-80
2021/05/07 04:05:49;;;;;;;5.53;3.20;;;16.50;99.90;;;;;;6339236;22;20425;-80
2021/05/07 04:08:20;;;;;;;7.97;2.95;;;16.50;99.90;;;;;;6310946;22;20010;-78
2021/05/07 04:10:52;;;;;;;7.78;3.17;;;16.60;99.90;;;;;;6338505;22;20026;-81
2021/05/07 04:13:39;;;;;;;5.10;3.00;;;16.60;99.90;;;;;;6338322;22;20014;-77
2021/05/07 04:16:05;;;;;;;6.53;3.40;;;16.70;99.90;;;;;;6338569;22;20006;-83
2021/05/07 04:18:32;;;;;;;12.32;3.40;;;16.80;99.90;;;;;;6338395;22;20412;-82
2021/05/07 04:20:58;;;;;;;5.65;3.17;;;16.80;99.90;;;;;;6338463;22;20003;-82
2021/05/07 04:23:24;;;;;;;6.38;3.22;;;16.80;99.90;;;;;;6337923;22;20081;-83
2021/05/07 04:25:51;;;;;;;6.35;3.60;;;16.80;99.90;;;;;;6338283;22;20018;-79
2021/05/07 04:28:18;;;;;;;11.40;3.67;;;16.90;99.90;;;;;;6338078;22;20330;-77
2021/05/07 04:30:44;;;;;;;6.30;3.00;;;16.90;99.90;;;;;;6338722;22;20371;-83
2021/05/07 04:33:10;;;;;;;6.55;3.20;;;17.00;99.90;;;;;;6310605;22;20042;-82
2021/05/07 04:35:37;;;;;;;6.38;3.45;;;16.80;99.90;;;;;;6339584;22;20040;-78
2021/05/07 04:38:04;;;;;;;10.63;3.92;;;16.60;99.90;;;;;;6339560;22;20432;-80
2021/05/07 04:40:31;;;;;;;6.40;2.88;;;16.70;99.90;;;;;;6310820;22;20006;-80
2021/05/07 04:43:00;;;;;;;6.32;4.55;;;16.60;99.90;;;;;;6312487;22;20457;-79
2021/05/07 04:45:27;;;;;;;6.95;3.92;;;16.60;99.90;;;;;;6346796;22;20013;-81
2021/05/07 04:47:53;;;;;;;7.20;3.35;;;16.70;99.90;;;;;;6338257;22;20417;-79
2021/05/07 04:50:19;;;;;;;9.13;3.80;;;16.70;99.90;;;;;;6338281;22;20336;-81
2021/05/07 04:52:45;;;;;;;10.48;3.35;;;16.80;99.90;;;;;;6310321;22;20079;-82
2021/05/07 04:55:11;;;;;;;7.50;3.47;;;16.90;99.90;;;;;;6337969;22;19999;-82
2021/05/07 04:57:37;;;;;;;12.10;4.45;;;17.00;99.90;;;;;;6337913;22;20079;-79
2021/05/07 05:00:04;;;;;;;8.50;3.00;;;17.10;99.90;;;;;;6337823;22;20480;-82
2021/05/07 05:02:30;;;;;;;5.85;2.92;;;17.10;99.90;;;;;;6337880;22;20038;-78
2021/05/07 05:04:57;;;;;;;9.85;3.72;;;17.10;99.90;;;;;;6338531;22;20014;-80
2021/05/07 05:07:23;;;;;;;8.07;3.33;;;17.10;99.90;;;;;;6310189;22;20003;-78
2021/05/07 05:09:49;;;;;;;9.63;3.92;;;17.10;99.90;;;;;;6338020;22;20009;-77
2021/05/07 05:12:15;;;;;;;3.67;2.83;;;17.10;99.90;;;;;;6338517;22;19999;-78
2021/05/07 05:14:41;;;;;;;4.82;2.83;;;17.10;99.90;;;;;;6352475;22;20240;-76
2021/05/07 05:17:07;;;;;;;5.63;3.35;;;17.10;99.90;;;;;;6340609;22;19998;-78
2021/05/07 05:19:33;;;;;;;6.50;3.30;;;17.10;99.90;;;;;;6338097;22;20002;-82
2021/05/07 05:21:59;;;;;;;5.78;2.60;;;17.10;99.90;;;;;;6337806;22;20022;-76
2021/05/07 05:24:25;;;;;;;5.38;3.20;;;17.10;99.90;;;;;;6337779;22;20034;-81
2021/05/07 05:26:51;;;;;;;11.45;3.35;;;17.20;99.90;;;;;;6337913;22;19999;-77
2021/05/07 05:29:17;;;;;;;9.90;3.10;;;17.20;99.90;;;;;;6337789;22;20010;-76
2021/05/07 05:31:42;;;;;;;7.43;3.63;;;17.10;99.90;;;;;;6338041;22;20448;-77
2021/05/07 05:34:08;;;;;;;5.13;3.03;;;17.10;99.90;;;;;;6338244;22;20040;-78
2021/05/07 05:36:34;;;;;;;5.30;2.92;;;17.20;99.90;;;;;;6339943;22;20014;-80
2021/05/07 05:39:00;;;;;;;5.85;3.50;;;17.20;99.90;;;;;;6312092;22;20003;-78
2021/05/07 05:41:27;;;;;;;9.98;3.05;;;17.20;99.90;;;;;;6339513;22;20447;-78
2021/05/07 05:43:52;;;;;;;6.03;3.90;;;17.30;99.90;;;;;;6339294;22;20453;-77
2021/05/07 05:46:18;;;;;;;7.13;2.97;;;17.30;99.90;;;;;;6312342;22;20016;-80
2021/05/07 05:48:45;;;;;;;10.70;3.53;;;17.30;99.90;;;;;;6339591;22;20240;-82
2021/05/07 05:51:11;;;;;;;16.48;6.68;;;17.40;99.90;;;;;;6339423;22;20002;-79
2021/05/07 05:53:37;;;;;;;16.42;7.45;;;17.50;99.90;;;;;;6339442;22;20017;-81
2021/05/07 05:56:04;;;;;;;13.43;6.80;;;17.50;99.90;;;;;;6339376;22;20065;-82
2021/05/07 05:58:31;;;;;;;10.85;3.80;;;17.60;99.90;;;;;;6311930;22;20081;-81
2021/05/07 06:00:58;;;;;;;8.20;3.15;;;17.70;99.90;;;;;;6339175;22;20510;-81
2021/05/07 06:03:24;;;;;;;39.15;7.15;;;17.80;99.90;;;;;;6339365;22;20003;-81
2021/05/07 06:05:50;;;;;;;20.13;4.25;;;17.90;99.90;;;;;;6311845;22;20064;-81
2021/05/07 06:08:16;;;;;;;8.25;3.40;;;18.00;99.90;;;;;;6339393;22;19999;-77
2021/05/07 06:10:42;;;;;;;9.57;3.50;;;18.10;99.90;;;;;;6339379;22;20010;-82
2021/05/07 06:13:08;;;;;;;6.40;2.73;;;18.10;99.90;;;;;;6339323;22;20418;-79
2021/05/07 06:15:34;;;;;;;7.10;2.97;;;18.10;99.90;;;;;;6339504;22;20294;-78
2021/05/07 06:18:00;;;;;;;6.28;2.75;;;18.20;99.90;;;;;;6339504;22;19999;-81
2021/05/07 06:20:26;;;;;;;4.72;2.30;;;18.30;99.90;;;;;;6339360;22;20433;-80
2021/05/07 06:22:52;;;;;;;6.53;2.67;;;18.40;99.90;;;;;;6339025;22;20064;-79
2021/05/07 06:25:20;;;;;;;11.98;3.20;;;18.40;99.90;;;;;;6314076;22;20007;-81
2021/05/07 06:27:46;;;;;;;9.20;2.60;;;18.40;99.90;;;;;;6358800;22;20002;-78
2021/05/07 06:30:14;;;;;;;6.30;2.55;;;18.50;99.90;;;;;;6339351;22;19999;-81
2021/05/07 06:32:40;;;;;;;9.80;2.38;;;18.40;99.90;;;;;;6311914;22;20005;-77
2021/05/07 06:35:07;;;;;;;4.13;2.25;;;18.40;99.90;;;;;;6339392;22;19999;-82
2021/05/07 06:37:33;;;;;;;4.15;1.80;;;18.40;99.90;;;;;;6339167;22;20372;-82
2021/05/07 06:40:00;;;;;;;6.18;2.83;;;18.50;99.90;;;;;;6339202;22;20473;-80
2021/05/07 06:42:28;;;;;;;4.65;2.20;;;18.50;99.90;;;;;;6338947;22;20015;-77
2021/05/07 06:44:54;;;;;;;7.07;2.45;;;18.50;99.90;;;;;;6338984;22;20375;-82
2021/05/07 06:47:20;;;;;;;10.45;2.20;;;18.50;99.90;;;;;;6338370;22;20003;-82
2021/05/07 06:49:46;;;;;;;6.95;2.10;;;18.60;99.90;;;;;;6339219;22;20388;-79
2021/05/07 06:52:11;;;;;;;7.32;2.70;;;18.70;99.90;;;;;;6339084;22;19995;-83
2021/05/07 06:54:37;;;;;;;5.80;2.50;;;18.70;99.90;;;;;;6339017;22;20003;-81
2021/05/07 06:57:04;;;;;;;7.75;2.40;;;18.70;99.90;;;;;;6338740;22;20283;-83
2021/05/07 06:59:30;;;;;;;6.53;2.55;;;18.70;99.90;;;;;;6338683;22;20007;-77
2021/05/07 07:01:59;;;;;;;5.18;2.47;;;18.80;99.90;;;;;;6339002;22;20006;-82
2021/05/07 07:04:25;;;;;;;8.80;2.70;;;18.90;99.90;;;;;;6338852;22;20014;-77
2021/05/07 07:06:51;;;;;;;18.80;4.13;;;19.00;99.90;;;;;;6339128;22;20005;-78
2021/05/07 07:09:17;;;;;;;4.32;2.83;;;19.10;99.90;;;;;;6339255;22;20034;-76
2021/05/07 07:11:43;;;;;;;9.35;4.90;;;19.20;99.90;;;;;;6338865;22;19999;-83
2021/05/07 07:14:09;;;;;;;21.27;5.97;;;19.40;99.90;;;;;;6339323;22;20052;-83
2021/05/07 07:16:35;;;;;;;7.78;3.00;;;19.40;99.90;;;;;;6339488;22;19998;-83
2021/05/07 07:19:02;;;;;;;12.02;3.47;;;19.50;99.90;;;;;;6339638;22;19998;-77
2021/05/07 07:21:28;;;;;;;13.38;3.08;;;19.60;99.90;;;;;;6339316;22;19998;-78
2021/05/07 07:23:54;;;;;;;12.48;4.32;;;19.70;99.90;;;;;;6311213;22;20088;-83
2021/05/07 07:26:20;;;;;;;5.50;2.30;;;19.70;99.90;;;;;;6339398;22;20002;-83
2021/05/07 07:28:49;;;;;;;8.48;2.20;;;19.80;99.90;;;;;;6339404;22;20378;-77
2021/05/07 07:31:16;;;;;;;8.02;2.58;;;19.80;99.90;;;;;;6339127;22;19999;-82
2021/05/07 07:33:42;;;;;;;6.18;2.75;;;19.90;99.90;;;;;;6339283;22;20034;-83
2021/05/07 07:36:08;;;;;;;7.40;2.42;;;20.00;99.90;;;;;;6339308;22;19999;-78
2021/05/07 07:38:34;;;;;;;7.53;2.22;;;20.10;99.90;;;;;;6347916;22;20048;-77
2021/05/07 07:41:00;;;;;;;3.37;1.60;;;20.20;99.90;;;;;;6354806;22;20007;-81
2021/05/07 07:43:26;;;;;;;4.13;2.13;;;20.10;99.90;;;;;;6343861;22;20302;-78
2021/05/07 07:45:52;;;;;;;3.33;1.92;;;20.10;99.90;;;;;;6339382;22;20033;-77
2021/05/07 07:48:18;;;;;;;4.60;1.95;;;20.10;99.90;;;;;;6338712;22;19999;-78
2021/05/07 07:50:44;;;;;;;4.20;2.03;;;20.10;99.90;;;;;;6339131;22;20044;-77
2021/05/07 07:53:10;;;;;;;9.63;2.95;;;20.10;99.90;;;;;;6338917;22;20703;-80
2021/05/07 07:55:37;;;;;;;3.55;1.95;;;20.20;99.90;;;;;;6310995;22;20072;-83
2021/05/07 07:58:03;;;;;;;3.42;2.13;;;20.30;99.90;;;;;;6338722;22;20486;-82
2021/05/07 08:00:29;;;;;;;5.72;2.20;;;20.40;99.90;;;;;;6338824;22;20353;-78
2021/05/07 08:02:55;;;;;;;5.35;2.53;;;20.50;99.90;;;;;;6338324;22;20010;-77
2021/05/07 08:05:21;;;;;;;5.28;2.63;;;20.50;99.90;;;;;;6339008;22;19999;-81
2021/05/07 08:07:48;;;;;;;5.00;1.95;;;20.70;99.90;;;;;;6338582;22;20105;-77
2021/05/07 08:10:16;;;;;;;3.92;2.00;;;20.80;99.50;;;;;;6338329;22;19999;-77
2021/05/07 08:12:42;;;;;;;3.72;2.35;;;20.90;99.30;;;;;;6338739;22;20003;-82
2021/05/07 08:15:09;;;;;;;6.53;1.90;;;20.80;98.80;;;;;;6338572;22;20006;-80
2021/05/07 08:17:35;;;;;;;3.65;1.65;;;20.80;98.60;;;;;;6338576;22;19999;-77
2021/05/07 08:20:02;;;;;;;6.40;2.33;;;20.80;99.00;;;;;;6338359;22;20007;-83
2021/05/07 08:22:28;;;;;;;6.72;2.05;;;20.70;98.80;;;;;;6338213;22;20052;-80
2021/05/07 08:24:54;;;;;;;8.48;2.50;;;20.60;98.30;;;;;;6338863;22;20010;-79
2021/05/07 08:27:20;;;;;;;3.55;2.00;;;20.70;97.70;;;;;;6338334;22;19999;-79
2021/05/07 08:29:47;;;;;;;4.30;2.25;;;20.70;98.20;;;;;;6338592;22;20362;-83
2021/05/07 08:32:13;;;;;;;6.65;2.42;;;20.80;97.10;;;;;;6338129;22;20307;-79
2021/05/07 08:34:43;;;;;;;8.57;2.28;;;20.80;96.70;;;;;;6338373;22;20436;-83
2021/05/07 08:37:10;;;;;;;4.50;2.58;;;20.80;96.20;;;;;;6338340;22;20003;-77
2021/05/07 08:39:37;;;;;;;6.90;2.95;;;20.80;96.20;;;;;;6310831;22;20052;-82
2021/05/07 08:42:05;;;;;;;5.70;2.50;;;20.90;96.60;;;;;;6310682;22;19999;-80
2021/05/07 08:44:31;;;;;;;27.35;4.00;;;21.10;96.80;;;;;;6310706;22;20015;-80
2021/05/07 08:46:58;;;;;;;8.02;3.05;;;21.30;96.20;;;;;;6338250;22;20045;-77
2021/05/07 08:49:25;;;;;;;6.03;2.13;;;21.40;95.70;;;;;;6338895;22;20002;-84
2021/05/07 08:51:51;;;;;;;4.65;2.10;;;21.60;93.70;;;;;;6345912;22;20422;-76
2021/05/07 08:54:17;;;;;;;9.25;2.45;;;21.70;92.90;;;;;;6312729;22;20011;-83
2021/05/07 08:56:44;;;;;;;5.33;1.60;;;21.80;92.70;;;;;;6338421;22;20048;-81
2021/05/07 08:59:11;;;;;;;6.90;3.60;;;21.90;91.30;;;;;;6338142;22;20007;-80
2021/05/07 09:01:50;;;;;;;6.03;2.47;;;22.00;90.50;;;;;;6305038;22;20327;-83
2021/05/07 09:04:21;;;;;;;3.53;1.75;;;22.10;90.70;;;;;;6306579;22;20018;-81
2021/05/07 09:06:52;;;;;;;10.00;2.42;;;22.10;90.80;;;;;;6306646;22;20030;-77
2021/05/07 09:09:30;;;;;;;6.57;2.53;;;22.30;90.30;;;;;;6307192;22;20035;-77
2021/05/07 09:11:58;;;;;;;10.60;2.80;;;22.20;86.90;;;;;;6308852;22;20426;-76
2021/05/07 09:14:27;;;;;;;9.68;3.03;;;22.20;88.50;;;;;;6308776;22;20000;-83
2021/05/07 09:16:59;;;;;;;4.70;2.45;;;22.40;89.80;;;;;;6308859;22;19999;-83
2021/05/07 09:19:31;;;;;;;4.57;3.10;;;22.60;90.00;;;;;;6308779;22;19999;-77
2021/05/07 09:21:58;;;;;;;10.13;4.10;;;22.60;88.80;;;;;;6307110;22;20231;-77
2021/05/07 09:24:34;;;;;;;5.00;3.15;;;22.70;86.20;;;;;;6308572;22;20042;-77
2021/05/07 09:27:01;;;;;;;6.28;2.35;;;22.60;86.50;;;;;;6308738;22;20006;-82
2021/05/07 09:29:30;;;;;;;3.30;2.00;;;22.70;85.10;;;;;;6308622;22;20078;-83
2021/05/07 09:32:00;;;;;;;3.25;2.17;;;22.90;84.40;;;;;;6307441;22;20003;-78
2021/05/07 09:34:26;;;;;;;5.38;2.13;;;22.90;83.60;;;;;;6308660;22;20000;-81
2021/05/07 09:36:52;;;;;;;4.07;2.00;;;23.10;87.70;;;;;;6308669;22;20003;-83
2021/05/07 09:39:22;;;;;;;5.05;2.58;;;23.30;88.00;;;;;;6306937;22;20022;-83
2021/05/07 09:41:52;;;;;;;4.22;1.90;;;23.50;87.20;;;;;;6308453;22;20074;-81
2021/05/07 09:44:23;;;;;;;4.07;2.15;;;23.70;86.90;;;;;;6308461;22;20019;-84
2021/05/07 09:46:50;;;;;;;2.75;1.63;;;23.90;86.60;;;;;;6308489;22;20010;-83
2021/05/07 09:49:25;;;;;;;3.20;1.45;;;24.00;85.90;;;;;;6308621;22;20049;-84
2021/05/07 09:51:52;;;;;;;2.60;1.73;;;24.10;84.80;;;;;;6308263;22;20004;-77
2021/05/07 09:54:18;;;;;;;3.08;1.80;;;24.30;84.50;;;;;;6308452;22;20027;-79
2021/05/07 09:56:44;;;;;;;4.28;2.15;;;24.20;82.90;;;;;;6308494;22;20039;-83
2021/05/07 09:59:12;;;;;;;4.47;1.75;;;24.20;82.80;;;;;;6308782;22;20481;-83
2021/05/07 10:01:39;;;;;;;4.22;1.83;;;24.40;81.60;;;;;;6337502;22;20330;-83
2021/05/07 10:04:05;;;;;;;5.55;1.98;;;24.70;80.50;;;;;;6342067;22;20430;-83
2021/05/07 10:06:32;;;;;;;3.65;1.52;;;24.90;79.40;;;;;;6342255;22;20069;-83
2021/05/07 10:08:59;;;;;;;3.35;1.80;;;25.10;76.90;;;;;;6339622;22;20006;-76
2021/05/07 10:11:33;;;;;;;5.22;1.67;;;25.40;78.70;;;;;;6339658;22;20044;-77
2021/05/07 10:14:07;;;;;;;2.45;1.35;;;25.50;78.70;;;;;;6339338;22;19999;-84
2021/05/07 10:16:34;;;;;;;6.05;1.77;;;25.70;79.10;;;;;;6339255;22;19995;-84
2021/05/07 10:19:02;;;;;;;7.90;2.05;;;25.90;79.60;;;;;;6339446;22;20009;-83
2021/05/07 10:21:40;;;;;;;2.85;1.70;;;26.00;78.00;;;;;;6339086;22;20100;-79
2021/05/07 10:24:11;;;;;;;3.50;1.55;;;25.40;78.90;;;;;;6339154;22;20067;-82
2021/05/07 10:26:42;;;;;;;2.58;1.30;;;25.30;77.90;;;;;;6339289;22;20013;-77
2021/05/07 10:29:34;;;;;;;3.50;1.77;;;25.20;78.20;;;;;;6339258;22;20618;-77
2021/05/07 10:32:02;;;;;;;3.67;1.55;;;25.30;78.00;;;;;;6332136;22;20007;-83
2021/05/07 10:34:28;;;;;;;3.72;1.70;;;25.40;78.40;;;;;;6311873;22;20003;-83
2021/05/07 10:36:56;;;;;;;5.38;1.58;;;25.40;79.70;;;;;;6339347;22;20007;-83
2021/05/07 10:39:29;;;;;;;5.55;1.90;;;25.30;80.70;;;;;;6339291;22;20452;-84
2021/05/07 10:42:00;;;;;;;2.75;1.50;;;25.30;79.40;;;;;;6339307;22;20448;-77
2021/05/07 10:44:28;;;;;;;4.63;1.95;;;25.00;80.20;;;;;;6339083;22;20006;-83
2021/05/07 10:47:05;;;;;;;2.67;1.52;;;24.90;80.80;;;;;;6339218;22;20003;-82
2021/05/07 10:49:35;;;;;;;5.68;1.60;;;25.00;80.30;;;;;;6338975;22;20007;-78
2021/05/07 10:52:01;;;;;;;6.53;1.80;;;25.10;78.20;;;;;;6339359;22;20406;-82
2021/05/07 10:54:44;;;;;;;4.90;1.48;;;25.10;78.40;;;;;;6339206;22;20003;-81
2021/05/07 10:57:23;;;;;;;;;;;25.20;77.10;;;;;;6339436;22;20010;-81
2021/05/07 11:00:02;;;;;;;3.42;1.30;;;25.20;77.20;;;;;;6338745;22;19909;-77
2021/05/07 11:02:29;;;;;;;3.22;1.65;;;25.10;76.80;;;;;;6338685;22;20010;-82
2021/05/07 11:04:55;;;;;;;2.75;1.63;;;25.10;77.80;;;;;;6338959;22;20007;-83
2021/05/07 11:07:33;;;;;;;2.70;1.45;;;25.10;77.80;;;;;;6338843;22;20069;-83
2021/05/07 11:10:00;;;;;;;6.43;1.50;;;25.10;76.80;;;;;;6338984;22;20294;-78
2021/05/07 11:12:26;;;;;;;2.15;1.35;;;25.00;77.50;;;;;;6338781;22;19994;-83
2021/05/07 11:14:52;;;;;;;1.85;1.38;;;25.20;78.20;;;;;;6338997;22;19999;-83
2021/05/07 11:17:19;;;;;;;6.95;1.20;;;25.50;76.60;;;;;;6345775;22;20451;-84
2021/05/07 11:19:47;;;;;;;2.78;1.20;;;25.60;75.80;;;;;;6338768;22;20093;-78
2021/05/07 11:22:13;;;;;;;3.97;1.52;;;25.60;75.40;;;;;;6338907;22;20505;-83
2021/05/07 11:24:43;;;;;;;2.13;1.35;;;25.40;78.10;;;;;;6338538;22;20037;-83
2021/05/07 11:27:24;;;;;;;2.92;1.58;;;25.30;77.20;;;;;;6338831;22;19998;-83
2021/05/07 11:30:06;;;;;;;2.90;1.40;;;25.30;78.00;;;;;;6338608;22;20003;-83
2021/05/07 11:32:32;;;;;;;3.65;1.75;;;25.80;78.80;;;;;;6338256;22;19999;-84
2021/05/07 11:35:10;;;;;;;1.98;1.40;;;26.40;78.40;;;;;;6338741;22;20060;-82
2021/05/07 11:37:42;;;;;;;3.88;1.55;;;26.20;77.00;;;;;;6338792;22;19999;-83
2021/05/07 11:40:16;;;;;;;3.58;1.30;;;25.90;76.60;;;;;;6338598;22;20003;-83
2021/05/07 11:42:44;;;;;;;3.63;1.48;;;26.00;76.30;;;;;;6338851;22;20435;-82
2021/05/07 11:45:24;;;;;;;2.88;1.38;;;25.90;75.60;;;;;;6338482;22;20014;-83
2021/05/07 11:47:51;;;;;;;4.05;1.35;;;25.80;75.00;;;;;;6339008;22;20324;-83
2021/05/07 11:50:21;;;;;;;1.98;1.10;;;25.60;75.50;;;;;;6338360;22;20538;-84
2021/05/07 11:52:49;;;;;;;2.40;1.25;;;25.40;75.30;;;;;;6338401;22;20030;-77
2021/05/07 11:55:18;;;;;;;2.08;1.20;;;25.30;76.50;;;;;;6311021;22;19999;-83
2021/05/07 11:58:00;;;;;;;4.32;1.75;;;25.10;76.40;;;;;;6338601;22;20003;-83
2021/05/07 12:00:27;;;;;;;1.92;1.13;;;25.00;75.60;;;;;;6338448;22;20007;-83
2021/05/07 12:03:05;;;;;;;1.95;0.98;;;24.90;76.10;;;;;;6338530;22;20014;-84
2021/05/07 12:05:38;;;;;;;3.60;1.13;;;24.70;76.80;;;;;;6338534;22;20030;-83
2021/05/07 12:08:05;;;;;;;2.17;1.10;;;24.60;76.50;;;;;;6338600;22;20036;-83
2021/05/07 12:10:32;;;;;;;3.17;1.55;;;24.60;76.50;;;;;;6338661;22;19995;-83
2021/05/07 12:13:00;;;;;;;2.55;1.23;;;24.50;76.70;;;;;;6338609;22;20013;-84
2021/05/07 12:15:30;;;;;;;3.28;1.90;;;24.30;77.80;;;;;;6338277;22;20056;-84
2021/05/07 12:17:56;;;;;;;4.25;1.35;;;24.10;79.50;;;;;;6338385;22;20437;-83
2021/05/07 12:20:28;;;;;;;1.95;1.38;;;24.30;79.60;;;;;;6338261;22;20010;-84
2021/05/07 12:22:56;;;;;;;3.28;1.27;;;24.30;78.60;;;;;;6310576;22;20018;-84
2021/05/07 12:25:27;;;;;;;2.78;1.60;;;24.20;78.60;;;;;;6338435;22;20047;-84
2021/05/07 12:27:55;;;;;;;1.40;1.30;;;24.20;78.80;;;;;;6341228;22;20068;-83
2021/05/07 12:30:32;;;;;;;2.15;1.50;;;24.40;77.00;;;;;;6343643;22;20034;-83
2021/05/07 12:33:05;;;;;;;5.25;1.13;;;24.50;77.00;;;;;;6338422;22;20006;-83
2021/05/07 12:35:48;;;;;;;2.38;1.42;;;24.70;77.50;;;;;;6338678;22;20302;-83
2021/05/07 12:38:13;;;;;;;;;;;24.70;77.70;;;;;;6339050;22;20013;-84
2021/05/07 12:40:39;;;;;;;2.13;1.30;;;24.90;78.00;;;;;;6338408;22;20236;-84
2021/05/07 12:43:05;;;;;;;4.40;2.47;;;25.00;77.30;;;;;;6338462;22;20011;-84
2021/05/07 12:45:31;;;;;;;6.77;2.67;;;25.10;76.40;;;;;;6338225;22;20051;-84
2021/05/07 12:47:57;;;;;;;6.10;2.77;;;25.40;75.60;;;;;;6338184;22;20067;-84